Drake Field
KFYV : rendu visible

Aérodrome :











RETROUVEZ-NOUS SUR...

 
LOGIN :

S'inscrire | Disclaimer

   EN    FR    IT 

 









Légende :    VFR   VFR Marginal   IFR   IFR Intensif   IFR Très Intensif
Visi : 
Plafond : 
>= 8 km
>= 3000ft
5 à 8 km
1000 à 3000 ft
1500m à 5 km
500 à 1000 ft
800 à 1500m
200 à 500 ft
< 800m
< 200 ft
Symboles :   Orages  Brouillard  Fortes neiges  Fortes précipitations  Vent > 20 kt






- Altitude de l'aérodrome : 1251 ft
- Code IATA : FYV


KFYV - Drake Field

DERNIER METAR :
  • 220053Z 21007KT 10SM CLR 03/M10 A3047 RMK AO2 SLP332 T00331100

METARs EXPIRÉS :
  • 212353Z 22006KT 10SM CLR 06/M10 A3047 RMK AO2 SLP330 T00561100 10094 20044 56019
  • 212253Z 24008KT 10SM CLR 08/M11 A3049 RMK AO2 SLP334 T00831111

TAF KFYV
Valide du 21 à 18h jusqu'au 22 à 18h UTC


211724Z 2118/2218 VRB04KT P6SM FEW250
FM221600 19008KT P6SM SCT250



MET'MAP, la Météo Aéronautique d'un coup d'oeil ! - Copyright ORBIFLY Décembre 2007 - Disclaimer

ORBIFLY MET'MAP TEAM :

Programmation & Développement : Alexandra Zaïnal
Sur une idée originale de : Baudouin d'Aumeries
Assistance à la programmation : Marc-Olivier Méhu
Soutien technique & logistique : Manuel Goepfert

Contact : metmap@orbifly.com




SOURCES & CREDITS :

   NOAA       Earth
Advisory